Time;durP1;ratioP1;P1;durP2;ratioP2;P2;SDS_P1;SDS_P2;PMS_P1;PMS_P2;Temp;Humidity;BMP_temperature;BMP_pressure;BME280_temperature;BME280_humidity;BME280_pressure;Samples;Min_cycle;Max_cycle;Signal;HPM_P1;HPM_P2
2021/01/18 00:00:38;;;;;;;24.35;9.75;;;1.80;75.40;;;;;;6194986;23;20015;-82
2021/01/18 00:03:03;;;;;;;27.55;10.15;;;1.90;75.30;;;;;;6219591;23;20327;-82
2021/01/18 00:05:29;;;;;;;27.05;10.90;;;1.80;75.20;;;;;;6220030;23;20299;-83
2021/01/18 00:07:55;;;;;;;25.48;10.18;;;1.90;75.60;;;;;;6219577;23;20014;-83
2021/01/18 00:10:24;;;;;;;26.10;10.02;;;1.90;75.20;;;;;;6219880;23;20007;-82
2021/01/18 00:12:52;;;;;;;17.10;6.50;;;1.90;75.50;;;;;;6193992;23;20051;-79
2021/01/18 00:15:20;;;;;;;21.35;7.97;;;1.90;75.00;;;;;;6219559;23;20035;-81
2021/01/18 00:17:47;;;;;;;25.42;9.18;;;1.90;75.00;;;;;;6194598;23;20430;-82
2021/01/18 00:20:14;;;;;;;21.95;8.63;;;1.90;75.40;;;;;;6219761;23;20015;-82
2021/01/18 00:22:40;;;;;;;22.80;9.07;;;1.90;75.30;;;;;;6219545;23;20004;-80
2021/01/18 00:25:11;;;;;;;15.80;6.50;;;1.90;75.30;;;;;;6246333;23;20065;-81
2021/01/18 00:27:38;;;;;;;6.85;3.05;;;1.90;76.10;;;;;;6219430;23;20004;-83
2021/01/18 00:30:13;;;;;;;21.05;8.35;;;2.00;75.40;;;;;;6219324;23;20312;-80
2021/01/18 00:32:39;;;;;;;13.88;5.38;;;1.90;75.30;;;;;;6219731;23;20081;-81
2021/01/18 00:35:09;;;;;;;14.02;5.32;;;2.00;75.30;;;;;;6194896;23;20015;-81
2021/01/18 00:37:47;;;;;;;12.00;4.60;;;2.00;75.30;;;;;;6219523;23;20339;-81
2021/01/18 00:40:15;;;;;;;19.67;7.32;;;2.00;75.50;;;;;;6219503;23;20007;-83
2021/01/18 00:42:41;;;;;;;6.43;3.40;;;2.00;75.70;;;;;;6219832;23;20074;-84
2021/01/18 00:45:15;;;;;;;16.98;6.78;;;2.10;75.70;;;;;;6219871;23;20027;-82
2021/01/18 00:47:51;;;;;;;6.22;2.88;;;2.10;75.70;;;;;;6219550;23;19996;-82
2021/01/18 00:50:19;;;;;;;11.40;4.53;;;2.10;75.70;;;;;;6220330;23;20008;-81
2021/01/18 00:52:47;;;;;;;20.10;6.25;;;2.30;75.90;;;;;;6194966;23;20065;-82
2021/01/18 00:55:16;;;;;;;18.13;5.43;;;2.20;75.80;;;;;;6219866;23;20000;-82
2021/01/18 00:57:43;;;;;;;17.08;7.03;;;2.30;75.90;;;;;;6244878;23;20316;-82
2021/01/18 01:00:11;;;;;;;8.75;3.22;;;2.40;76.00;;;;;;6248293;23;20363;-81
2021/01/18 01:02:37;;;;;;;11.15;4.85;;;2.40;76.00;;;;;;6226452;23;20004;-81
2021/01/18 01:05:04;;;;;;;5.80;2.85;;;2.40;76.10;;;;;;6222471;23;20004;-81
2021/01/18 01:07:30;;;;;;;15.65;5.45;;;2.50;76.20;;;;;;6244850;23;20088;-81
2021/01/18 01:09:55;;;;;;;9.38;3.53;;;2.50;76.20;;;;;;6219446;23;20062;-81
2021/01/18 01:12:23;;;;;;;15.20;5.97;;;2.50;76.10;;;;;;6219532;23;20343;-81
2021/01/18 01:14:49;;;;;;;8.95;2.85;;;2.60;76.20;;;;;;6193995;23;20339;-80
2021/01/18 01:17:15;;;;;;;17.23;6.68;;;2.60;76.30;;;;;;6219409;23;20004;-79
2021/01/18 01:19:40;;;;;;;17.23;6.35;;;2.70;76.40;;;;;;6219601;23;20314;-80
2021/01/18 01:22:06;;;;;;;10.70;4.32;;;2.70;76.30;;;;;;6193984;23;20012;-80
2021/01/18 01:24:33;;;;;;;10.38;4.68;;;2.70;76.30;;;;;;6194086;23;20000;-80
2021/01/18 01:26:59;;;;;;;11.15;4.47;;;2.80;76.30;;;;;;6218626;23;20050;-80
2021/01/18 01:29:25;;;;;;;17.17;6.45;;;2.90;76.40;;;;;;6193818;23;20393;-79
2021/01/18 01:31:50;;;;;;;16.88;8.07;;;2.80;76.40;;;;;;6218846;23;20027;-79
2021/01/18 01:34:16;;;;;;;8.07;3.40;;;3.00;76.50;;;;;;6218879;23;20488;-80
2021/01/18 01:36:43;;;;;;;14.23;5.63;;;2.90;76.50;;;;;;6193821;23;20008;-79
2021/01/18 01:39:09;;;;;;;4.95;2.20;;;2.90;76.50;;;;;;6245599;23;20004;-79
2021/01/18 01:41:35;;;;;;;9.52;4.30;;;3.00;76.60;;;;;;6218759;23;20138;-79
2021/01/18 01:44:01;;;;;;;13.95;6.78;;;3.00;76.50;;;;;;6218604;23;20111;-79
2021/01/18 01:46:27;;;;;;;10.88;5.28;;;3.00;76.30;;;;;;6219002;23;20047;-80
2021/01/18 01:48:52;;;;;;;17.05;7.80;;;3.00;76.40;;;;;;6218720;23;20103;-80
2021/01/18 01:51:19;;;;;;;8.70;4.15;;;3.10;76.70;;;;;;6218949;23;20376;-80
2021/01/18 01:53:45;;;;;;;14.60;5.53;;;3.10;76.60;;;;;;6246414;23;20422;-80
2021/01/18 01:56:10;;;;;;;9.15;4.30;;;3.10;76.50;;;;;;6196117;23;20058;-80
2021/01/18 01:58:36;;;;;;;11.48;5.45;;;3.10;76.50;;;;;;6220901;23;20013;-81
2021/01/18 02:01:03;;;;;;;17.35;7.45;;;3.10;76.50;;;;;;6195950;23;20015;-80
2021/01/18 02:03:38;;;;;;;4.43;2.50;;;3.10;76.70;;;;;;6247638;23;20005;-80
2021/01/18 02:06:08;;;;;;;8.20;3.80;;;3.20;76.60;;;;;;6220695;23;20019;-80
2021/01/18 02:08:34;;;;;;;20.15;7.78;;;3.10;76.60;;;;;;6247327;23;20008;-80
2021/01/18 02:11:00;;;;;;;17.08;7.05;;;3.20;76.60;;;;;;6247597;23;20080;-80
2021/01/18 02:13:47;;;;;;;6.32;2.65;;;3.20;76.70;;;;;;6247399;23;20008;-80
2021/01/18 02:16:37;;;;;;;5.93;3.28;;;3.20;76.60;;;;;;6220225;23;20018;-80
2021/01/18 02:19:42;;;;;;;14.77;6.78;;;3.20;76.50;;;;;;6220531;23;20031;-80
2021/01/18 02:22:23;;;;;;;6.47;2.63;;;3.20;76.80;;;;;;6220592;23;20311;-80
2021/01/18 02:25:20;;;;;;;7.20;3.08;;;3.20;76.60;;;;;;6247769;23;20082;-80
2021/01/18 02:27:54;;;;;;;11.13;4.10;;;3.20;76.70;;;;;;6220665;23;20058;-80
2021/01/18 02:30:42;;;;;;;10.05;5.00;;;3.20;76.70;;;;;;6247530;23;20032;-80
2021/01/18 02:33:27;;;;;;;16.90;6.68;;;3.20;76.70;;;;;;6220069;23;20035;-80
2021/01/18 02:36:12;;;;;;;15.35;6.47;;;3.20;76.90;;;;;;6220353;23;20004;-80
2021/01/18 02:39:02;;;;;;;16.17;6.43;;;3.20;76.90;;;;;;6220464;23;20011;-80
2021/01/18 02:41:43;;;;;;;11.38;5.20;;;3.30;76.80;;;;;;6220344;23;20083;-80
2021/01/18 02:44:15;;;;;;;19.80;7.40;;;3.10;76.10;;;;;;6220364;23;20004;-80
2021/01/18 02:46:42;;;;;;;9.98;3.70;;;2.90;75.90;;;;;;6247221;23;20474;-80
2021/01/18 02:49:09;;;;;;;15.52;6.60;;;3.00;76.50;;;;;;6220174;23;20008;-81
2021/01/18 02:51:43;;;;;;;9.57;4.32;;;3.00;76.70;;;;;;6220884;23;20011;-82
2021/01/18 02:54:08;;;;;;;10.13;3.60;;;3.00;76.80;;;;;;6220542;23;20011;-81
2021/01/18 02:56:34;;;;;;;11.52;4.78;;;2.90;76.70;;;;;;6247263;23;19997;-81
2021/01/18 02:59:02;;;;;;;12.30;5.00;;;2.90;76.90;;;;;;6245581;23;20042;-82
2021/01/18 03:01:52;;;;;;;9.50;4.55;;;3.00;77.10;;;;;;6220622;23;20008;-81
2021/01/18 03:04:45;;;;;;;11.05;4.05;;;3.00;77.00;;;;;;6220289;23;20000;-81
2021/01/18 03:07:29;;;;;;;15.07;5.97;;;3.00;77.00;;;;;;6247398;23;20011;-82
2021/01/18 03:10:05;;;;;;;14.50;6.60;;;3.00;77.20;;;;;;6220656;23;20060;-80
2021/01/18 03:12:40;;;;;;;8.40;3.95;;;3.00;77.20;;;;;;6219803;23;20091;-80
2021/01/18 03:15:10;;;;;;;6.45;2.92;;;3.00;77.20;;;;;;6246876;23;20004;-80
2021/01/18 03:17:38;;;;;;;7.75;2.63;;;3.00;77.40;;;;;;6220080;23;20004;-80
2021/01/18 03:20:04;;;;;;;6.40;3.05;;;3.00;77.20;;;;;;6220420;23;20414;-80
2021/01/18 03:22:33;;;;;;;16.67;6.90;;;3.10;77.40;;;;;;6246490;23;20082;-80
2021/01/18 03:25:03;;;;;;;12.38;5.30;;;3.10;77.40;;;;;;6220093;23;20011;-80
2021/01/18 03:27:29;;;;;;;7.28;3.38;;;3.10;77.40;;;;;;6219905;23;20008;-79
2021/01/18 03:29:54;;;;;;;7.53;3.85;;;3.10;77.20;;;;;;6195111;23;20008;-79
2021/01/18 03:32:20;;;;;;;9.23;4.05;;;3.00;77.10;;;;;;6219962;23;20012;-79
2021/01/18 03:34:46;;;;;;;3.85;1.70;;;3.00;77.30;;;;;;6219833;23;20007;-79
2021/01/18 03:37:12;;;;;;;10.77;4.38;;;3.00;77.20;;;;;;6219831;23;20015;-79
2021/01/18 03:39:37;;;;;;;9.60;4.32;;;3.00;77.10;;;;;;6219863;23;20000;-79
2021/01/18 03:42:03;;;;;;;5.43;2.38;;;3.00;77.20;;;;;;6194707;23;20040;-79
2021/01/18 03:44:29;;;;;;;14.70;5.13;;;2.90;77.10;;;;;;6219620;23;20022;-79
2021/01/18 03:46:54;;;;;;;11.38;4.20;;;2.90;77.30;;;;;;6219890;23;20016;-79
2021/01/18 03:49:20;;;;;;;8.05;3.30;;;3.00;78.10;;;;;;6200202;23;20091;-79
2021/01/18 03:51:45;;;;;;;8.77;3.45;;;2.90;77.40;;;;;;6223972;23;20016;-79
2021/01/18 03:54:11;;;;;;;13.30;5.72;;;2.90;77.40;;;;;;6246751;23;20080;-80
2021/01/18 03:56:43;;;;;;;7.03;3.40;;;3.00;77.50;;;;;;6219973;23;20011;-79
2021/01/18 03:59:09;;;;;;;11.30;4.93;;;2.90;77.40;;;;;;6219738;23;20012;-79
2021/01/18 04:01:39;;;;;;;8.75;4.15;;;2.90;77.10;;;;;;6219466;23;20360;-79
2021/01/18 04:04:05;;;;;;;4.45;2.15;;;2.80;76.80;;;;;;6195005;23;20499;-79
2021/01/18 04:06:35;;;;;;;4.93;1.88;;;2.70;76.80;;;;;;6219606;23;20015;-79
2021/01/18 04:09:01;;;;;;;12.63;4.75;;;2.60;76.90;;;;;;6219709;23;20087;-79
2021/01/18 04:11:27;;;;;;;7.60;3.30;;;2.60;77.20;;;;;;6219523;23;20444;-79
2021/01/18 04:13:52;;;;;;;9.88;4.35;;;2.60;77.20;;;;;;6219470;23;20008;-80
2021/01/18 04:16:18;;;;;;;11.23;4.60;;;2.50;76.90;;;;;;6219123;23;20008;-80
2021/01/18 04:18:44;;;;;;;8.98;3.72;;;2.50;77.20;;;;;;6193997;23;20008;-80
2021/01/18 04:21:09;;;;;;;13.15;4.82;;;2.50;77.20;;;;;;6219677;23;20079;-80
2021/01/18 04:23:36;;;;;;;9.57;4.22;;;2.50;77.30;;;;;;6194359;23;20422;-82
2021/01/18 04:26:01;;;;;;;7.70;2.65;;;2.50;77.50;;;;;;6194232;23;20015;-80
2021/01/18 04:28:27;;;;;;;13.77;4.65;;;2.40;77.50;;;;;;6194472;23;20012;-80
2021/01/18 04:30:52;;;;;;;11.40;5.32;;;2.50;78.30;;;;;;6219183;23;20029;-80
2021/01/18 04:33:18;;;;;;;4.75;2.17;;;2.50;77.80;;;;;;6219212;23;20012;-80
2021/01/18 04:35:44;;;;;;;10.90;4.57;;;2.50;77.70;;;;;;6194313;23;20010;-80
2021/01/18 04:38:09;;;;;;;10.82;4.57;;;2.50;77.60;;;;;;6194377;23;20012;-80
2021/01/18 04:40:35;;;;;;;5.35;2.25;;;2.50;77.80;;;;;;6193900;23;20046;-80
2021/01/18 04:43:01;;;;;;;4.80;2.08;;;2.50;77.80;;;;;;6244656;23;20011;-79
2021/01/18 04:45:29;;;;;;;10.73;4.50;;;2.60;77.80;;;;;;6218910;23;20030;-80
2021/01/18 04:47:56;;;;;;;6.55;2.50;;;2.50;77.70;;;;;;6246067;23;19996;-79
2021/01/18 04:50:25;;;;;;;12.57;4.80;;;2.50;77.90;;;;;;6246069;23;20367;-80
2021/01/18 04:52:55;;;;;;;11.05;4.43;;;2.60;78.10;;;;;;6218668;23;20079;-80
2021/01/18 04:55:42;;;;;;;7.53;3.47;;;2.60;78.20;;;;;;6219375;23;20008;-80
2021/01/18 04:58:15;;;;;;;4.80;2.55;;;2.60;78.30;;;;;;6219238;23;20430;-80
2021/01/18 05:00:47;;;;;;;5.30;2.75;;;2.60;78.30;;;;;;6219094;23;20066;-80
2021/01/18 05:03:23;;;;;;;10.43;4.43;;;2.70;78.30;;;;;;6218678;23;20015;-80
2021/01/18 05:05:52;;;;;;;12.00;5.10;;;2.70;78.30;;;;;;6217501;23;20528;-80
2021/01/18 05:08:36;;;;;;;15.55;7.63;;;2.80;78.50;;;;;;6219114;23;20058;-80
2021/01/18 05:11:02;;;;;;;11.05;4.53;;;2.80;78.70;;;;;;6245641;23;20426;-80
2021/01/18 05:13:30;;;;;;;13.57;5.30;;;2.80;78.30;;;;;;6193890;23;20019;-80
2021/01/18 05:15:59;;;;;;;7.90;2.97;;;2.80;78.50;;;;;;6218903;23;20012;-80
2021/01/18 05:18:32;;;;;;;11.07;4.85;;;2.90;78.40;;;;;;6219248;23;20032;-80
2021/01/18 05:21:04;;;;;;;11.90;4.75;;;2.90;78.40;;;;;;6194148;23;20008;-80
2021/01/18 05:23:29;;;;;;;12.85;5.43;;;2.90;78.30;;;;;;6219466;23;20385;-80
2021/01/18 05:26:18;;;;;;;7.85;3.40;;;2.90;78.40;;;;;;6219119;23;20008;-80
2021/01/18 05:28:51;;;;;;;11.02;4.93;;;2.90;78.40;;;;;;6218793;23;20008;-80
2021/01/18 05:31:26;;;;;;;11.63;5.03;;;2.90;78.40;;;;;;6218992;23;20004;-80
2021/01/18 05:33:56;;;;;;;12.90;5.18;;;3.00;78.70;;;;;;6218863;23;20091;-80
2021/01/18 05:36:45;;;;;;;12.13;4.95;;;3.00;78.80;;;;;;6218889;23;20066;-80
2021/01/18 05:39:13;;;;;;;14.18;5.43;;;3.10;78.80;;;;;;6245850;23;20062;-80
2021/01/18 05:41:40;;;;;;;12.57;5.55;;;3.10;78.70;;;;;;6218677;23;20007;-80
2021/01/18 05:44:07;;;;;;;13.98;6.13;;;3.10;78.70;;;;;;6218174;23;20008;-80
2021/01/18 05:46:34;;;;;;;13.85;6.47;;;3.10;78.80;;;;;;6218595;23;20044;-80
2021/01/18 05:49:11;;;;;;;17.80;7.68;;;3.20;78.70;;;;;;6218503;23;20004;-80
2021/01/18 05:51:38;;;;;;;10.80;5.15;;;3.20;78.80;;;;;;6245072;23;20367;-80
2021/01/18 05:54:06;;;;;;;15.70;6.53;;;3.20;78.70;;;;;;6218962;23;20011;-80
2021/01/18 05:56:43;;;;;;;13.38;4.95;;;3.30;78.70;;;;;;6218757;23;20000;-80
2021/01/18 05:59:20;;;;;;;11.60;4.80;;;3.20;78.60;;;;;;6217918;23;20079;-80
2021/01/18 06:01:47;;;;;;;18.00;7.30;;;3.30;78.70;;;;;;6218546;23;20003;-80
2021/01/18 06:04:27;;;;;;;17.67;7.25;;;3.20;78.40;;;;;;6218690;23;20087;-80
2021/01/18 06:06:58;;;;;;;15.07;5.78;;;3.20;78.40;;;;;;6218553;23;20058;-80
2021/01/18 06:09:44;;;;;;;8.20;3.17;;;3.20;78.40;;;;;;6218232;23;20008;-80
2021/01/18 06:12:39;;;;;;;13.77;5.00;;;3.20;78.50;;;;;;6218478;23;20008;-80
2021/01/18 06:15:11;;;;;;;5.82;2.45;;;3.20;78.50;;;;;;6199196;23;20439;-82
2021/01/18 06:28:44;;;;;;;15.45;6.00;;;3.20;78.90;;;;;;6218663;22;20371;-88
2021/01/18 06:31:12;;;;;;;14.60;6.45;;;3.30;78.90;;;;;;6219913;23;20012;-85
2021/01/18 06:33:47;;;;;;;13.93;5.97;;;3.20;78.80;;;;;;6219814;23;20016;-88
2021/01/18 06:36:33;;;;;;;10.23;3.75;;;3.20;78.80;;;;;;6250619;22;20008;-84
2021/01/18 06:39:04;;;;;;;19.33;8.27;;;3.20;79.60;;;;;;6247437;22;20455;-82
2021/01/18 06:41:37;;;;;;;10.73;3.72;;;3.20;78.90;;;;;;6245770;23;20434;-83
2021/01/18 06:44:05;;;;;;;14.18;5.80;;;3.20;78.80;;;;;;6245921;22;20004;-83
2021/01/18 07:26:24;;;;;;;7.30;2.88;;;2.70;79.40;;;;;;6216693;22;20054;-91
2021/01/18 07:29:09;;;;;;;14.30;5.70;;;2.70;79.40;;;;;;6246388;23;20007;-90
2021/01/18 07:31:36;;;;;;;11.43;5.28;;;2.80;79.50;;;;;;6245814;23;20430;-91
2021/01/18 07:34:04;;;;;;;7.97;4.20;;;2.80;80.30;;;;;;6246067;23;20004;-91
2021/01/18 07:36:31;;;;;;;14.95;6.82;;;2.90;79.70;;;;;;6245718;23;20065;-90
2021/01/18 07:43:38;;;;;;;14.32;6.28;;;3.00;79.70;;;;;;6247461;23;20006;-92
2021/01/18 07:46:48;;;;;;;9.35;3.85;;;3.00;79.60;;;;;;6071245;23;20014;-87
2021/01/18 07:49:17;;;;;;;15.43;7.43;;;3.00;79.70;;;;;;6106955;23;20002;-89
2021/01/18 07:52:37;;;;;;;15.63;6.80;;;3.00;79.70;;;;;;6100382;23;20093;-89
2021/01/18 07:55:20;;;;;;;9.50;4.32;;;3.10;79.90;;;;;;6068628;23;20006;-90
2021/01/18 07:57:48;;;;;;;10.20;4.18;;;3.00;79.80;;;;;;6245864;23;20008;-90
2021/01/18 08:00:20;;;;;;;2.88;1.50;;;3.10;79.90;;;;;;6246206;23;20083;-90
2021/01/18 08:02:55;;;;;;;7.72;2.92;;;3.10;80.00;;;;;;6246101;23;20004;-90
2021/01/18 09:33:36;;;;;;;6.22;3.38;;;3.60;80.20;;;;;;6241182;22;20020;-88
2021/01/18 09:36:19;;;;;;;10.57;3.70;;;3.70;80.70;;;;;;6245290;23;20374;-88
2021/01/18 09:38:46;;;;;;;11.20;4.25;;;3.70;80.70;;;;;;6245006;23;20422;-89
2021/01/18 09:48:37;;;;;;;12.13;5.05;;;4.10;81.60;;;;;;6246886;22;20044;-90
2021/01/18 09:51:48;;;;;;;13.75;5.57;;;4.20;81.70;;;;;;6243984;23;20008;-91
2021/01/18 09:58:02;;;;;;;9.00;4.60;;;4.30;80.90;;;;;;6065654;23;20581;-82
2021/01/18 10:00:31;;;;;;;7.05;3.35;;;4.30;80.90;;;;;;6153106;23;20009;-87
2021/01/18 10:02:58;;;;;;;10.25;4.68;;;4.40;81.00;;;;;;6128505;23;20017;-87
2021/01/18 10:05:34;;;;;;;6.78;3.15;;;4.40;81.00;;;;;;6200976;23;20008;-89
2021/01/18 10:08:04;;;;;;;7.55;2.90;;;4.40;81.20;;;;;;6245347;23;20012;-90
2021/01/18 10:10:49;;;;;;;12.90;5.97;;;4.60;81.80;;;;;;6245485;23;20024;-91
2021/01/18 10:13:17;;;;;;;;;;;4.70;81.80;;;;;;6250716;23;20012;-90
2021/01/18 10:15:44;;;;;;;10.63;4.63;;;4.80;81.40;;;;;;6246800;23;19900;-90
2021/01/18 10:18:28;;;;;;;12.60;5.43;;;4.90;81.50;;;;;;6247335;23;20008;-90
2021/01/18 10:20:54;;;;;;;3.33;1.92;;;5.10;82.10;;;;;;6247160;23;20266;-90
2021/01/18 10:31:20;;;;;;;12.75;6.07;;;5.40;81.00;;;;;;6219849;22;20024;-92
2021/01/18 10:34:36;;;;;;;;;;;;;;;;;;;;;
2021/01/18 10:37:28;;;;;;;10.40;4.22;;;5.30;80.70;;;;;;6217524;23;20083;-87
2021/01/18 10:40:46;;;;;;;10.23;4.30;;;5.40;81.60;;;;;;6190800;23;20434;-87
2021/01/18 10:46:54;;;;;;;14.40;6.10;;;5.50;81.50;;;;;;6197252;23;20008;-88
2021/01/18 10:52:44;;;;;;;8.93;3.55;;;5.50;80.80;;;;;;6216973;23;20074;-87
2021/01/18 10:55:13;;;;;;;10.82;5.03;;;5.40;80.60;;;;;;6166812;23;20422;-90
2021/01/18 11:01:34;;;;;;;6.13;2.17;;;5.30;80.40;;;;;;6217091;23;20011;-91
2021/01/18 11:04:06;;;;;;;15.07;6.90;;;5.20;80.50;;;;;;6190615;23;20012;-86
2021/01/18 11:07:15;;;;;;;14.57;5.55;;;5.20;80.50;;;;;;6166094;23;20088;-85
2021/01/18 11:09:59;;;;;;;11.70;4.68;;;5.10;80.50;;;;;;6216299;23;20005;-86
2021/01/18 11:13:06;;;;;;;8.40;4.30;;;5.10;80.60;;;;;;6189698;23;20559;-86
2021/01/18 11:15:46;;;;;;;;;;;;;;;;;;;;;
2021/01/18 11:46:38;;;;;;;10.23;4.45;;;4.70;81.50;;;;;;6222534;22;20016;-88
2021/01/18 12:00:31;;;;;;;11.05;4.40;;;5.00;81.40;;;;;;6149331;23;20009;-83
2021/01/18 12:02:59;;;;;;;12.95;5.60;;;5.00;80.80;;;;;;6160186;22;20005;-83
2021/01/18 12:05:28;;;;;;;14.02;6.43;;;4.90;80.60;;;;;;6249623;22;20015;-81
2021/01/18 12:07:56;;;;;;;10.63;4.22;;;5.00;81.10;;;;;;6250579;22;20487;-83
2021/01/18 12:10:23;;;;;;;13.38;6.05;;;4.90;81.10;;;;;;6231360;22;20011;-81
2021/01/18 12:12:50;;;;;;;6.07;3.47;;;5.00;80.90;;;;;;6260245;22;20019;-81
2021/01/18 12:15:22;;;;;;;12.77;5.47;;;5.00;81.00;;;;;;6229244;22;20027;-83
2021/01/18 12:17:51;;;;;;;11.05;4.75;;;5.00;80.80;;;;;;6253475;22;20014;-82
2021/01/18 12:20:43;;;;;;;10.20;5.03;;;5.00;80.90;;;;;;6227712;22;20006;-83
2021/01/18 12:23:19;;;;;;;;;;;;;;;;;;;;;
2021/01/18 12:26:02;;;;;;;17.63;6.38;;;5.00;80.70;;;;;;6277390;22;20070;-84
2021/01/18 12:32:56;;;;;;;4.40;2.05;;;5.00;80.90;;;;;;6213307;23;20087;-84
2021/01/18 12:35:22;;;;;;;10.70;4.45;;;5.00;80.90;;;;;;6200516;22;20718;-82
2021/01/18 12:38:36;;;;;;;16.33;6.25;;;4.90;80.80;;;;;;6224613;22;20081;-83
2021/01/18 12:41:32;;;;;;;6.45;3.42;;;4.80;80.20;;;;;;6259942;22;20374;-83
2021/01/18 12:47:03;;;;;;;12.68;4.90;;;4.70;80.70;;;;;;6243097;22;20019;-83
2021/01/18 12:49:59;;;;;;;9.05;3.67;;;4.60;80.70;;;;;;6250196;22;20322;-83
2021/01/18 12:56:56;;;;;;;;;;;;;;;;;;;;;
2021/01/18 13:37:19;;;;;;;7.65;2.28;;;4.70;81.00;;;;;;6182728;23;20016;-85
2021/01/18 13:40:03;;;;;;;9.68;3.90;;;4.70;81.70;;;;;;6065123;23;20009;-84
2021/01/18 14:14:53;;;;;;;14.05;5.88;;;4.80;81.10;;;;;;5898850;24;20101;-85
2021/01/18 14:17:23;;;;;;;7.80;3.53;;;4.80;80.90;;;;;;5925965;23;20015;-82
2021/01/18 14:19:49;;;;;;;13.30;5.00;;;4.70;81.30;;;;;;6040164;23;20002;-82
2021/01/18 14:23:36;;;;;;;13.43;5.80;;;4.80;81.00;;;;;;6098469;23;20344;-89
2021/01/18 14:36:50;;;;;;;;;;;;;;;;;;;;;
2021/01/18 14:43:42;;;;;;;;;;;;;;;;;;;;;
2021/01/18 14:46:57;;;;;;;;;;;;;;;;;;;;;
2021/01/18 15:11:34;;;;;;;;;;;;;;;;;;;;;
2021/01/18 15:14:17;;;;;;;19.98;7.15;;;4.30;81.00;;;;;;5927436;24;20107;-84
2021/01/18 15:17:01;;;;;;;6.78;1.90;;;4.40;80.90;;;;;;5931181;24;20044;-86
2021/01/18 15:19:38;;;;;;;10.23;4.03;;;4.40;80.60;;;;;;5963278;23;20358;-87
2021/01/18 15:22:16;;;;;;;13.77;6.28;;;4.30;80.70;;;;;;6014811;23;20007;-83
2021/01/18 15:40:46;;;;;;;11.52;5.10;;;4.00;80.40;;;;;;6019258;23;20003;-85
2021/01/18 15:43:25;;;;;;;13.90;6.03;;;4.00;80.60;;;;;;5956824;24;20032;-86
2021/01/18 15:45:51;;;;;;;10.85;3.92;;;4.00;80.60;;;;;;6000730;23;20007;-88
2021/01/18 15:48:23;;;;;;;12.07;4.13;;;3.90;80.60;;;;;;6042962;23;20014;-87
2021/01/18 15:50:52;;;;;;;11.75;4.47;;;4.00;80.70;;;;;;6201353;23;20097;-87
2021/01/18 15:53:19;;;;;;;11.50;5.22;;;4.10;80.70;;;;;;6220410;23;20016;-87
2021/01/18 15:55:44;;;;;;;12.10;5.22;;;4.00;80.60;;;;;;6220441;23;20043;-86
2021/01/18 15:58:10;;;;;;;10.10;4.45;;;4.00;80.60;;;;;;6220170;23;20338;-87
2021/01/18 16:00:40;;;;;;;12.70;5.03;;;4.00;80.40;;;;;;6220284;23;20005;-86
2021/01/18 16:03:27;;;;;;;14.55;6.38;;;4.00;80.60;;;;;;6246917;23;20004;-85
2021/01/18 16:09:56;;;;;;;8.85;3.75;;;3.90;80.40;;;;;;6248470;23;20067;-84
2021/01/18 16:12:22;;;;;;;16.25;8.20;;;3.90;80.30;;;;;;6201351;23;20442;-86
2021/01/18 16:15:00;;;;;;;37.60;19.52;;;3.80;80.50;;;;;;6226377;23;20001;-86
2021/01/18 16:17:29;;;;;;;13.70;6.10;;;3.90;80.70;;;;;;6197769;23;20012;-87
2021/01/18 16:24:27;;;;;;;13.88;6.47;;;3.90;80.60;;;;;;6176885;23;20438;-87
2021/01/18 16:27:07;;;;;;;11.77;4.70;;;3.90;80.70;;;;;;6219834;23;20083;-84
2021/01/18 16:29:39;;;;;;;12.05;5.15;;;3.90;80.50;;;;;;6220126;23;20004;-84
2021/01/18 16:32:21;;;;;;;14.45;5.38;;;3.80;80.50;;;;;;6219791;23;20327;-85
2021/01/18 16:39:00;;;;;;;11.25;4.57;;;3.80;80.70;;;;;;6035776;23;20015;-83
2021/01/18 16:41:29;;;;;;;11.20;4.70;;;3.80;80.60;;;;;;6086871;23;20079;-85
2021/01/18 16:47:26;;;;;;;7.57;3.33;;;3.80;80.50;;;;;;6261662;22;20354;-86
2021/01/18 16:49:52;;;;;;;12.02;5.05;;;3.70;80.30;;;;;;6219558;23;20016;-80
2021/01/18 16:52:18;;;;;;;7.50;3.25;;;3.70;80.40;;;;;;6246154;23;20016;-80
2021/01/18 16:54:43;;;;;;;14.50;5.40;;;3.70;80.60;;;;;;6218906;23;20015;-80
2021/01/18 16:57:09;;;;;;;20.92;8.55;;;3.70;80.60;;;;;;6219242;23;20005;-80
2021/01/18 16:59:36;;;;;;;14.32;4.72;;;3.80;80.70;;;;;;6219143;23;20012;-80
2021/01/18 17:02:06;;;;;;;20.20;7.32;;;3.80;80.60;;;;;;6219465;23;20087;-80
2021/01/18 17:04:35;;;;;;;6.22;3.35;;;3.80;80.70;;;;;;6220039;23;20004;-81
2021/01/18 17:07:01;;;;;;;10.32;4.03;;;3.70;80.50;;;;;;6219251;23;20011;-81
2021/01/18 17:09:28;;;;;;;9.45;3.58;;;3.60;80.30;;;;;;6219018;23;20012;-81
2021/01/18 17:11:55;;;;;;;11.48;5.35;;;3.40;80.10;;;;;;6219205;23;20009;-81
2021/01/18 17:14:22;;;;;;;7.93;3.40;;;3.70;80.40;;;;;;6219402;23;20004;-81
2021/01/18 17:17:07;;;;;;;10.13;4.60;;;3.70;80.60;;;;;;6218727;23;20366;-81
2021/01/18 17:19:33;;;;;;;10.88;4.20;;;3.70;80.70;;;;;;6219003;23;20008;-81
2021/01/18 17:21:59;;;;;;;11.65;4.82;;;3.70;80.60;;;;;;6194418;23;20064;-81
2021/01/18 17:24:29;;;;;;;9.93;4.63;;;3.60;80.60;;;;;;6219359;23;20178;-81
2021/01/18 17:26:59;;;;;;;14.00;5.35;;;3.70;80.70;;;;;;6245585;23;20012;-80
2021/01/18 17:29:25;;;;;;;12.73;6.07;;;3.70;80.60;;;;;;6246089;23;20175;-82
2021/01/18 17:31:51;;;;;;;12.93;5.63;;;3.70;80.60;;;;;;6219740;23;20039;-84
2021/01/18 17:34:19;;;;;;;5.40;2.53;;;3.70;80.70;;;;;;6194195;23;20012;-90
2021/01/18 17:37:10;;;;;;;6.43;2.88;;;3.70;80.80;;;;;;6220761;23;20438;-92
2021/01/18 17:39:36;;;;;;;6.60;2.20;;;3.70;80.50;;;;;;6220465;23;20090;-81
2021/01/18 17:42:05;;;;;;;5.97;2.88;;;3.80;80.70;;;;;;6221172;23;20007;-79
2021/01/18 17:44:31;;;;;;;8.13;3.25;;;3.70;80.70;;;;;;6226208;23;20000;-79
2021/01/18 17:47:03;;;;;;;7.07;3.30;;;3.80;80.70;;;;;;6223401;23;20024;-79
2021/01/18 17:49:29;;;;;;;11.13;4.68;;;3.80;80.80;;;;;;6245100;22;20022;-79
2021/01/18 17:51:54;;;;;;;8.13;3.58;;;3.80;80.60;;;;;;6218318;23;20044;-80
2021/01/18 17:54:20;;;;;;;10.05;4.00;;;3.80;80.70;;;;;;6194091;23;20320;-81
2021/01/18 17:56:46;;;;;;;11.75;4.45;;;3.80;80.50;;;;;;6220858;23;20004;-81
2021/01/18 17:59:12;;;;;;;10.85;4.88;;;3.80;80.70;;;;;;6194691;23;20019;-80
2021/01/18 18:01:41;;;;;;;13.77;6.60;;;3.70;80.50;;;;;;6219276;23;20009;-80
2021/01/18 18:04:10;;;;;;;11.45;4.40;;;3.80;80.70;;;;;;6245470;23;20004;-79
2021/01/18 18:06:37;;;;;;;4.20;2.20;;;3.70;80.50;;;;;;6245450;23;20410;-79
2021/01/18 18:09:03;;;;;;;4.70;1.98;;;3.70;80.60;;;;;;6218419;23;20012;-80
2021/01/18 18:11:30;;;;;;;14.32;5.15;;;3.80;80.50;;;;;;6219190;23;20035;-80
2021/01/18 18:13:58;;;;;;;13.65;5.38;;;3.70;80.40;;;;;;6218299;23;20034;-79
2021/01/18 18:16:24;;;;;;;12.98;5.63;;;3.80;80.50;;;;;;6218732;23;20008;-79
2021/01/18 18:18:53;;;;;;;8.43;3.63;;;3.70;80.50;;;;;;6218427;23;20046;-79
2021/01/18 18:21:27;;;;;;;11.82;5.07;;;3.70;80.30;;;;;;6245760;23;20304;-79
2021/01/18 18:23:55;;;;;;;17.47;6.97;;;3.60;80.10;;;;;;6218397;23;20019;-79
2021/01/18 18:26:34;;;;;;;10.98;4.43;;;3.60;80.10;;;;;;6246045;23;20457;-79
2021/01/18 18:29:07;;;;;;;13.25;5.72;;;3.50;80.10;;;;;;6245126;23;20051;-79
2021/01/18 18:31:40;;;;;;;11.88;4.50;;;3.50;80.30;;;;;;6244913;23;20079;-79
2021/01/18 18:34:09;;;;;;;5.93;2.58;;;3.50;80.50;;;;;;6245379;23;20046;-79
2021/01/18 18:36:36;;;;;;;6.95;3.40;;;3.50;80.50;;;;;;6219910;23;20008;-80
2021/01/18 18:39:08;;;;;;;8.48;3.45;;;3.60;80.70;;;;;;6195449;23;20087;-79
2021/01/18 18:41:35;;;;;;;20.92;7.75;;;3.60;80.40;;;;;;6195954;23;20437;-81
2021/01/18 18:44:02;;;;;;;17.25;3.35;;;3.60;80.30;;;;;;6195738;23;20007;-79
2021/01/18 18:46:36;;;;;;;12.45;5.43;;;3.60;80.40;;;;;;6218871;23;20089;-82
2021/01/18 18:49:04;;;;;;;2.78;1.85;;;3.50;80.30;;;;;;6240755;22;20023;-80
2021/01/18 18:52:00;;;;;;;10.27;3.63;;;3.40;80.40;;;;;;6225278;22;20011;-79
2021/01/18 18:54:28;;;;;;;10.82;4.35;;;3.50;80.30;;;;;;6231881;22;20046;-79
2021/01/18 18:56:56;;;;;;;8.40;3.20;;;3.40;80.40;;;;;;6250647;22;20024;-80
2021/01/18 18:59:25;;;;;;;8.88;3.38;;;3.40;80.30;;;;;;6250523;22;20080;-79
2021/01/18 19:01:53;;;;;;;8.23;3.97;;;3.40;80.50;;;;;;6278179;22;20000;-80
2021/01/18 19:04:20;;;;;;;10.45;4.13;;;3.40;80.50;;;;;;6251002;22;20015;-80
2021/01/18 19:06:46;;;;;;;2.10;1.25;;;3.40;81.00;;;;;;6277581;22;20031;-80
2021/01/18 19:09:12;;;;;;;11.77;4.30;;;3.40;80.70;;;;;;6250605;22;20007;-80
2021/01/18 19:11:38;;;;;;;11.52;4.45;;;3.40;80.50;;;;;;6250248;22;20091;-79
2021/01/18 19:14:04;;;;;;;12.45;3.55;;;3.40;80.60;;;;;;6250428;22;20008;-79
2021/01/18 19:16:30;;;;;;;13.88;6.32;;;3.40;80.40;;;;;;6225102;22;20012;-79
2021/01/18 19:18:56;;;;;;;5.88;2.47;;;3.40;80.40;;;;;;6250305;22;20060;-79
2021/01/18 19:21:22;;;;;;;7.45;3.55;;;3.40;80.40;;;;;;6224991;22;20000;-79
2021/01/18 19:23:47;;;;;;;10.65;4.90;;;3.40;80.60;;;;;;6277861;22;20365;-80
2021/01/18 19:26:17;;;;;;;11.63;4.45;;;3.30;80.40;;;;;;6250588;22;20008;-79
2021/01/18 19:28:45;;;;;;;5.55;2.63;;;3.30;80.50;;;;;;6250207;22;20014;-80
2021/01/18 19:31:21;;;;;;;12.18;5.13;;;3.40;80.70;;;;;;6250153;22;20433;-79